Hector, NY (14841)

2:25 PM EDT on September 03, 2015 (GMT -0400)
Hector | | Change Station
CLOSE
Current Station
Personal Weather Station
Location: Hector, NY
Elevation: 900 ft
Nearby Weather Stations

Elev 900 ft 42.49 °N, 76.87 °W | Updated 13 seconds ago

Partly Cloudy
Partly Cloudy
83.7 °F
Feels Like 88 °F
N
6.0
Wind Variable Wind from NE
Gusts 9.0 mph

Today
High -- | Low -- °F
--% Chance of Precip.
Yesterday
High -- | Low -- °F
Precip. -- in
6:34 AM 7:38 PM
Waning Gibbous, 68% visible
Pressure 29.93 in
Visibility 9.0 miles
Clouds Few 3400 ft
Scattered Clouds 4500 ft
Heat Index 88 °F
Dew Point 71 °F
Humidity 65%
Rainfall 0.00 in
Snow Depth Not available.
UV 7 out of 12
Pollen 8.10 out of 12
Air Quality Not available.
Flu Activity Not available.
METAR KPEO 031753Z AUTO 31005KT 9SM FEW034 SCT045 29/20 A2995 RMK AO2 SLP133 T02890200 10294 20217 58009
Pressure 29.93 in
Visibility 9.0 miles
Clouds Few 3400 ft
Scattered Clouds 4500 ft
Heat Index 88 °F
Dew Point 71 °F
Humidity 65%
Rainfall 0.00 in
Snow Depth Not available.
UV 7 out of 12
Pollen 8.10 out of 12
Air Quality Not available.
Flu Activity Not available.
METAR KPEO 031753Z AUTO 31005KT 9SM FEW034 SCT045 29/20 A2995 RMK AO2 SLP133 T02890200 10294 20217 58009

10-Day Weather Forecast

×

Almanac

Astronomy

Sep. 03, 2015 Rise Set
Actual Time
Civil Twilight
Nautical Twilight
Astronomical Twilight
Moon
Length of Visible Light
Length of Day
Tomorrow will be .
, % of the Moon is Illuminated

Today's Extremes

State Highs State Lows

Community

WunderPhotos

Upload Photos

1,851,999 photos uploaded!

WunderBlogs® & News

Nearby

Air Quality

  Air Quality AQ Index Pollutant
Not available.

Snow Depth

Station Depth Elevation

Earthquake Activity

City Distance Mag. Time & Date
Minimum magnitude displayed is 2.5.

Coastal Water Temperatures

Place Temperature

Stations

Nearby Weather Stations

Station Location Temp. Windchill Dew Point Humidity Wind Precip. Elev Updated Type